createdAt,value
2019-03-31T00:00:42.723Z,11.30
2019-03-31T00:03:12.198Z,13.70
2019-03-31T00:05:41.687Z,13.10
2019-03-31T00:08:11.532Z,12.97
2019-03-31T00:10:41.069Z,14.63
2019-03-31T00:13:10.455Z,14.20
2019-03-31T00:15:39.877Z,16.20
2019-03-31T00:18:09.354Z,21.83
2019-03-31T00:20:38.728Z,15.93
2019-03-31T00:23:08.170Z,14.13
2019-03-31T00:25:39.167Z,12.90
2019-03-31T00:28:08.592Z,11.50
2019-03-31T00:30:38.003Z,10.17
2019-03-31T00:33:07.454Z,11.50
2019-03-31T00:35:37.428Z,13.10
2019-03-31T00:38:07.243Z,15.80
2019-03-31T00:40:37.171Z,17.30
2019-03-31T00:43:06.681Z,16.23
2019-03-31T00:45:36.191Z,10.73
2019-03-31T00:48:05.699Z,11.17
2019-03-31T00:50:35.136Z,13.30
2019-03-31T00:53:04.610Z,14.37
2019-03-31T00:55:34.308Z,14.60
2019-03-31T00:58:03.832Z,20.30
2019-03-31T01:00:51.359Z,17.47
2019-03-31T01:03:21.715Z,19.73
2019-03-31T01:05:51.171Z,19.57
2019-03-31T01:08:21.268Z,22.73
2019-03-31T01:10:50.794Z,25.63
2019-03-31T01:13:20.912Z,17.23
2019-03-31T01:15:51.331Z,22.00
2019-03-31T01:18:21.063Z,18.07
2019-03-31T01:20:50.532Z,16.03
2019-03-31T01:23:20.297Z,19.80
2019-03-31T01:25:49.844Z,16.77
2019-03-31T01:28:19.303Z,19.80
2019-03-31T01:30:49.202Z,18.63
2019-03-31T01:33:19.231Z,16.60
2019-03-31T01:35:48.772Z,17.70
2019-03-31T01:38:18.990Z,24.30
2019-03-31T01:40:48.870Z,17.17
2019-03-31T01:43:18.467Z,17.33
2019-03-31T01:45:47.901Z,18.87
2019-03-31T01:48:17.510Z,18.03
2019-03-31T01:50:47.891Z,15.93
2019-03-31T01:53:17.323Z,18.37
2019-03-31T01:55:46.969Z,16.17
2019-03-31T01:58:16.587Z,17.77
2019-03-31T02:00:51.033Z,15.07
2019-03-31T02:03:21.235Z,15.60
2019-03-31T02:05:50.735Z,16.10
2019-03-31T02:08:20.264Z,14.47
2019-03-31T02:10:49.756Z,20.50
2019-03-31T02:13:19.605Z,17.03
2019-03-31T02:15:49.153Z,14.13
2019-03-31T02:18:18.842Z,14.67
2019-03-31T02:20:48.693Z,17.53
2019-03-31T02:23:18.153Z,15.63
2019-03-31T02:25:47.491Z,16.83
2019-03-31T02:28:16.973Z,12.97
2019-03-31T02:30:47.049Z,15.90
2019-03-31T02:33:16.990Z,16.33
2019-03-31T02:35:46.910Z,14.50
2019-03-31T02:38:16.845Z,14.23
2019-03-31T02:40:46.358Z,14.90
2019-03-31T02:43:16.120Z,18.33
2019-03-31T02:45:45.755Z,17.80
2019-03-31T02:48:15.443Z,17.13
2019-03-31T02:50:49.903Z,17.53
2019-03-31T02:53:20.763Z,20.40
2019-03-31T02:55:51.055Z,16.90
2019-03-31T02:58:20.991Z,16.53
2019-03-31T03:00:50.610Z,18.13
2019-03-31T03:03:20.726Z,18.90
2019-03-31T03:05:50.720Z,16.50
2019-03-31T03:08:21.526Z,20.17
2019-03-31T03:10:53.051Z,17.30
2019-03-31T03:13:27.287Z,15.10
2019-03-31T03:16:28.087Z,15.53
2019-03-31T03:18:57.808Z,15.87
2019-03-31T03:21:27.316Z,16.83
2019-03-31T03:23:57.049Z,18.30
2019-03-31T03:26:26.617Z,19.40
2019-03-31T03:28:56.094Z,17.90
2019-03-31T03:31:25.528Z,14.10
2019-03-31T03:33:55.048Z,17.27
2019-03-31T03:36:24.796Z,18.00
2019-03-31T03:38:54.622Z,16.13
2019-03-31T03:41:24.415Z,16.53
2019-03-31T03:43:56.338Z,19.60
2019-03-31T03:46:25.092Z,20.30
2019-03-31T03:48:53.788Z,19.43
2019-03-31T03:51:23.328Z,16.50
2019-03-31T03:53:52.741Z,18.13
2019-03-31T03:56:22.933Z,19.20
2019-03-31T03:58:52.346Z,14.40
2019-03-31T04:01:24.004Z,18.90
2019-03-31T04:03:53.660Z,16.90
2019-03-31T04:06:23.577Z,19.80
2019-03-31T04:08:53.071Z,13.93
2019-03-31T04:11:27.586Z,18.27
2019-03-31T04:13:57.734Z,18.93
2019-03-31T04:16:27.329Z,17.70
2019-03-31T04:18:56.965Z,19.60
2019-03-31T04:21:27.275Z,17.27
2019-03-31T04:23:57.302Z,14.07
2019-03-31T04:26:26.835Z,17.90
2019-03-31T04:28:56.335Z,17.00
2019-03-31T04:31:25.948Z,16.73
2019-03-31T04:33:55.727Z,14.70
2019-03-31T04:36:25.771Z,20.40
2019-03-31T04:38:59.682Z,15.20
2019-03-31T04:41:26.651Z,18.37
2019-03-31T04:43:56.391Z,17.77
2019-03-31T04:46:26.242Z,13.30
2019-03-31T04:48:55.583Z,17.57
2019-03-31T04:51:25.111Z,17.10
2019-03-31T04:53:54.560Z,17.03
2019-03-31T04:56:24.347Z,15.43
2019-03-31T04:58:54.145Z,14.77
2019-03-31T05:01:23.882Z,22.03
2019-03-31T05:04:04.560Z,15.13
2019-03-31T05:06:24.533Z,17.33
2019-03-31T05:08:53.910Z,14.67
2019-03-31T05:11:23.398Z,19.43
2019-03-31T05:13:52.769Z,14.60
2019-03-31T05:16:22.448Z,17.23
2019-03-31T05:18:51.875Z,15.10
2019-03-31T05:21:21.208Z,17.20
2019-03-31T05:23:50.575Z,17.77
2019-03-31T05:26:20.093Z,18.75
2019-03-31T05:28:49.543Z,16.40
2019-03-31T05:31:19.274Z,15.80
2019-03-31T05:33:49.068Z,14.83
2019-03-31T05:36:18.576Z,14.87
2019-03-31T05:38:48.308Z,16.10
2019-03-31T05:41:17.919Z,17.57
2019-03-31T05:43:47.343Z,16.50
2019-03-31T05:46:17.101Z,15.70
2019-03-31T05:48:46.506Z,14.97
2019-03-31T05:51:16.225Z,22.80
2019-03-31T05:53:45.979Z,14.77
2019-03-31T05:56:15.393Z,14.75
2019-03-31T05:58:44.735Z,15.00
2019-03-31T06:01:14.222Z,15.00
2019-03-31T06:03:43.566Z,12.77
2019-03-31T06:06:13.251Z,15.03
2019-03-31T06:08:42.612Z,17.33
2019-03-31T06:11:12.380Z,15.20
2019-03-31T06:13:42.080Z,15.93
2019-03-31T06:16:11.602Z,14.67
2019-03-31T06:18:41.444Z,14.03
2019-03-31T06:21:10.978Z,25.63
2019-03-31T06:23:40.464Z,20.70
2019-03-31T06:26:10.004Z,11.50
2019-03-31T06:28:39.642Z,13.30
2019-03-31T06:31:09.085Z,15.23
2019-03-31T06:33:38.402Z,13.67
2019-03-31T06:36:07.898Z,13.77
2019-03-31T06:38:37.495Z,16.70
2019-03-31T06:41:06.967Z,13.43
2019-03-31T06:43:36.467Z,12.70
2019-03-31T06:46:06.015Z,13.87
2019-03-31T06:48:35.701Z,16.70
2019-03-31T06:51:05.515Z,17.07
2019-03-31T06:53:35.328Z,16.60
2019-03-31T06:56:04.844Z,16.00
2019-03-31T06:58:34.294Z,16.67
2019-03-31T07:01:03.782Z,15.97
2019-03-31T07:03:33.258Z,14.00
2019-03-31T07:06:02.656Z,16.13
2019-03-31T07:08:32.069Z,14.87
2019-03-31T07:11:01.843Z,17.00
2019-03-31T07:13:31.265Z,20.17
2019-03-31T07:16:00.789Z,16.77
2019-03-31T07:18:30.220Z,14.40
2019-03-31T07:20:59.972Z,20.10
2019-03-31T07:23:29.419Z,18.47
2019-03-31T07:25:59.083Z,17.20
2019-03-31T07:28:28.455Z,15.73
2019-03-31T07:30:59.525Z,14.27
2019-03-31T07:33:29.284Z,16.63
2019-03-31T07:35:58.687Z,14.00
2019-03-31T07:38:38.641Z,18.43
2019-03-31T07:41:12.039Z,17.70
2019-03-31T07:43:32.462Z,15.70
2019-03-31T07:46:02.063Z,20.10
2019-03-31T07:48:31.513Z,14.10
2019-03-31T07:51:00.837Z,18.27
2019-03-31T07:53:30.917Z,13.27
2019-03-31T07:56:03.548Z,20.67
2019-03-31T07:58:33.090Z,15.70
2019-03-31T08:01:02.515Z,15.97
2019-03-31T08:03:32.036Z,23.10
2019-03-31T08:06:01.463Z,17.40
2019-03-31T08:08:31.103Z,14.83
2019-03-31T08:11:00.554Z,15.87
2019-03-31T08:13:30.014Z,13.23
2019-03-31T08:15:59.631Z,14.00
2019-03-31T08:18:29.020Z,15.47
2019-03-31T08:20:58.414Z,16.10
2019-03-31T08:23:27.883Z,17.97
2019-03-31T08:25:57.274Z,16.13
2019-03-31T08:28:26.629Z,16.30
2019-03-31T08:30:56.167Z,43.17
2019-03-31T08:33:25.620Z,14.60
2019-03-31T08:35:55.120Z,19.20
2019-03-31T08:38:24.889Z,19.00
2019-03-31T08:40:54.384Z,16.20
2019-03-31T08:43:23.998Z,20.67
2019-03-31T08:45:53.812Z,17.50
2019-03-31T08:48:24.379Z,19.50
2019-03-31T08:50:53.997Z,18.60
2019-03-31T08:53:23.659Z,17.80
2019-03-31T08:55:53.116Z,16.37
2019-03-31T08:58:22.670Z,20.70
2019-03-31T09:00:59.170Z,20.57
2019-03-31T09:03:28.610Z,14.00
2019-03-31T09:06:02.224Z,21.30
2019-03-31T09:08:29.274Z,16.10
2019-03-31T09:10:58.727Z,21.50
2019-03-31T09:13:28.166Z,18.43
2019-03-31T09:15:58.019Z,17.90
2019-03-31T09:18:27.734Z,21.77
2019-03-31T09:20:57.149Z,17.60
2019-03-31T09:23:26.633Z,31.93
2019-03-31T09:25:56.183Z,22.20
2019-03-31T09:28:25.868Z,19.57
2019-03-31T09:30:55.407Z,22.03
2019-03-31T09:33:24.945Z,16.07
2019-03-31T09:35:54.736Z,18.10
2019-03-31T09:38:24.374Z,17.53
2019-03-31T09:40:54.201Z,22.20
2019-03-31T09:43:23.912Z,21.47
2019-03-31T09:45:53.348Z,21.00
2019-03-31T09:48:23.234Z,18.90
2019-03-31T09:50:53.153Z,24.87
2019-03-31T09:53:23.986Z,23.10
2019-03-31T09:55:53.692Z,21.30
2019-03-31T09:58:23.111Z,20.67
2019-03-31T10:00:53.635Z,24.07
2019-03-31T10:03:23.245Z,22.13
2019-03-31T10:05:52.790Z,21.60
2019-03-31T10:08:22.534Z,24.77
2019-03-31T10:10:52.135Z,26.90
2019-03-31T10:13:21.976Z,57.30
2019-03-31T10:15:51.414Z,24.67
2019-03-31T10:18:20.872Z,28.27
2019-03-31T10:20:50.291Z,28.37
2019-03-31T10:23:20.219Z,25.57
2019-03-31T10:25:50.030Z,29.13
2019-03-31T10:28:19.511Z,32.27
2019-03-31T10:30:49.087Z,29.83
2019-03-31T10:33:18.596Z,33.07
2019-03-31T10:35:48.097Z,30.40
2019-03-31T10:38:17.962Z,30.87
2019-03-31T10:40:47.896Z,32.63
2019-03-31T10:43:17.332Z,26.80
2019-03-31T10:45:46.842Z,28.63
2019-03-31T10:48:20.897Z,32.53
2019-03-31T10:50:47.451Z,31.33
2019-03-31T10:53:17.006Z,31.97
2019-03-31T10:55:46.480Z,29.23
2019-03-31T10:58:16.147Z,32.03
2019-03-31T11:00:45.715Z,33.27
2019-03-31T11:03:15.278Z,26.07
2019-03-31T11:05:44.798Z,30.70
2019-03-31T11:08:14.351Z,35.73
2019-03-31T11:10:44.091Z,32.60
2019-03-31T11:13:14.056Z,26.73
2019-03-31T11:15:43.720Z,30.50
2019-03-31T11:18:13.097Z,29.60
2019-03-31T11:20:42.927Z,24.80
2019-03-31T11:23:26.950Z,28.77
2019-03-31T11:25:56.463Z,29.70
2019-03-31T11:28:26.064Z,33.73
2019-03-31T11:30:55.502Z,31.40
2019-03-31T11:33:25.413Z,29.27
2019-03-31T11:35:55.156Z,22.30
2019-03-31T11:38:24.826Z,21.07
2019-03-31T11:40:54.588Z,28.63
2019-03-31T11:43:24.166Z,29.63
2019-03-31T11:45:53.603Z,32.27
2019-03-31T11:48:23.272Z,29.00
2019-03-31T11:50:52.773Z,27.53
2019-03-31T11:53:22.139Z,27.43
2019-03-31T11:55:52.013Z,27.60
2019-03-31T11:58:21.449Z,30.30
2019-03-31T12:00:53.719Z,27.90
2019-03-31T12:03:23.219Z,27.27
2019-03-31T12:05:52.811Z,29.10
2019-03-31T12:08:22.459Z,25.50
2019-03-31T12:10:52.505Z,34.07
2019-03-31T12:13:22.321Z,25.33
2019-03-31T12:15:51.829Z,23.90
2019-03-31T12:18:21.250Z,27.07
2019-03-31T12:20:51.002Z,30.60
2019-03-31T12:23:20.624Z,27.33
2019-03-31T12:25:50.550Z,30.00
2019-03-31T12:28:20.077Z,32.20
2019-03-31T12:30:49.570Z,32.00
2019-03-31T12:33:18.366Z,26.50
2019-03-31T12:35:48.005Z,26.97
2019-03-31T12:38:17.819Z,27.67
2019-03-31T12:40:47.358Z,26.77
2019-03-31T12:43:17.045Z,28.47
2019-03-31T12:45:46.521Z,37.13
2019-03-31T12:48:16.086Z,27.87
2019-03-31T12:50:45.830Z,24.37
2019-03-31T12:53:15.430Z,27.03
2019-03-31T12:55:59.136Z,24.05
2019-03-31T12:58:16.334Z,29.73
2019-03-31T13:00:46.005Z,23.50
2019-03-31T13:03:16.275Z,30.03
2019-03-31T13:05:46.431Z,24.63
2019-03-31T13:08:16.395Z,27.60
2019-03-31T13:10:46.405Z,19.33
2019-03-31T13:13:16.029Z,24.30
2019-03-31T13:15:45.627Z,26.70
2019-03-31T13:18:15.509Z,22.77
2019-03-31T13:20:45.319Z,19.30
2019-03-31T13:23:14.707Z,17.60
2019-03-31T13:25:44.736Z,19.30
2019-03-31T13:28:14.329Z,19.70
2019-03-31T13:30:43.928Z,23.10
2019-03-31T13:33:13.360Z,24.20
2019-03-31T13:35:42.895Z,27.13
2019-03-31T13:38:12.430Z,24.30
2019-03-31T13:40:41.942Z,25.07
2019-03-31T13:43:11.575Z,25.40
2019-03-31T13:45:41.048Z,24.03
2019-03-31T13:48:10.440Z,21.70
2019-03-31T13:50:40.209Z,20.97
2019-03-31T13:53:10.058Z,22.37
2019-03-31T13:55:39.609Z,24.27
2019-03-31T13:58:10.299Z,22.07
2019-03-31T14:00:44.314Z,26.23
2019-03-31T14:03:13.880Z,24.23
2019-03-31T14:05:43.719Z,22.17
2019-03-31T14:08:24.967Z,23.10
2019-03-31T14:10:44.584Z,27.07
2019-03-31T14:13:14.487Z,33.20
2019-03-31T14:15:44.033Z,22.10
2019-03-31T14:18:13.824Z,29.30
2019-03-31T14:20:43.349Z,24.70
2019-03-31T14:23:13.108Z,24.90
2019-03-31T14:25:42.630Z,23.47
2019-03-31T14:28:12.061Z,25.00
2019-03-31T14:30:41.550Z,27.03
2019-03-31T14:33:11.022Z,29.80
2019-03-31T14:35:40.554Z,29.33
2019-03-31T14:38:10.109Z,33.33
2019-03-31T14:40:40.013Z,37.97
2019-03-31T14:43:09.995Z,40.67
2019-03-31T14:45:39.883Z,41.53
2019-03-31T14:48:09.570Z,35.33
2019-03-31T14:50:40.378Z,47.90
2019-03-31T14:53:10.255Z,41.60
2019-03-31T14:55:39.983Z,50.37
2019-03-31T14:58:09.832Z,43.87
2019-03-31T15:00:39.446Z,48.77
2019-03-31T15:03:09.160Z,34.23
2019-03-31T15:05:38.743Z,53.30
2019-03-31T15:08:08.256Z,52.07
2019-03-31T15:10:37.987Z,47.77
2019-03-31T15:13:07.607Z,48.20
2019-03-31T15:15:37.190Z,45.17
2019-03-31T15:18:06.937Z,43.90
2019-03-31T15:20:36.377Z,38.87
2019-03-31T15:23:05.927Z,50.40
2019-03-31T15:25:35.806Z,51.80
2019-03-31T15:28:05.432Z,47.43
2019-03-31T15:30:35.186Z,52.33
2019-03-31T15:33:05.291Z,44.70
2019-03-31T15:35:37.575Z,42.13
2019-03-31T15:38:06.404Z,56.23
2019-03-31T15:40:35.903Z,42.30
2019-03-31T15:43:05.438Z,60.97
2019-03-31T15:45:35.517Z,44.77
2019-03-31T15:48:05.133Z,41.37
2019-03-31T15:50:35.760Z,37.83
2019-03-31T15:53:05.371Z,45.37
2019-03-31T15:55:34.804Z,44.23
2019-03-31T15:58:05.437Z,44.67
2019-03-31T16:00:35.412Z,47.00
2019-03-31T16:03:05.209Z,46.70
2019-03-31T16:05:35.128Z,36.10
2019-03-31T16:08:04.111Z,35.90
2019-03-31T16:10:33.062Z,37.83
2019-03-31T16:13:01.954Z,33.33
2019-03-31T16:15:30.913Z,44.23
2019-03-31T16:18:00.712Z,38.33
2019-03-31T16:20:29.630Z,39.63
2019-03-31T16:22:58.686Z,29.40
2019-03-31T16:25:39.115Z,36.17
2019-03-31T16:28:07.998Z,36.23
2019-03-31T16:30:37.862Z,30.10
2019-03-31T16:33:07.318Z,35.87
2019-03-31T16:35:37.383Z,30.20
2019-03-31T16:38:06.284Z,33.40
2019-03-31T16:40:35.216Z,30.07
2019-03-31T16:43:04.619Z,35.17
2019-03-31T16:45:33.478Z,27.87
2019-03-31T16:48:02.543Z,24.60
2019-03-31T16:50:31.855Z,24.63
2019-03-31T16:53:00.857Z,25.83
2019-03-31T16:55:30.058Z,32.10
2019-03-31T16:57:58.931Z,16.57
2019-03-31T17:00:28.095Z,25.63
2019-03-31T17:02:57.136Z,23.07
2019-03-31T17:05:26.077Z,24.80
2019-03-31T17:07:55.147Z,23.20
2019-03-31T17:10:24.628Z,21.80
2019-03-31T17:12:53.947Z,27.43
2019-03-31T17:15:23.327Z,34.90
2019-03-31T17:17:52.261Z,24.77
2019-03-31T17:20:21.299Z,21.03
2019-03-31T17:22:50.235Z,16.33
2019-03-31T17:25:19.264Z,14.63
2019-03-31T17:27:48.135Z,18.50
2019-03-31T17:30:17.130Z,17.87
2019-03-31T17:32:46.084Z,22.60
2019-03-31T17:35:14.958Z,23.33
2019-03-31T17:37:44.182Z,15.73
2019-03-31T17:40:13.479Z,16.87
2019-03-31T17:42:43.066Z,20.40
2019-03-31T17:45:12.502Z,23.53
2019-03-31T17:47:41.465Z,17.03
2019-03-31T17:50:10.565Z,19.63
2019-03-31T17:52:39.396Z,17.87
2019-03-31T17:55:09.313Z,21.57
2019-03-31T17:57:38.611Z,22.77
2019-03-31T18:00:09.022Z,23.03
2019-03-31T18:02:38.171Z,18.37
2019-03-31T18:05:08.342Z,19.60
2019-03-31T18:07:38.033Z,13.50
2019-03-31T18:10:19.926Z,16.40
2019-03-31T18:12:39.407Z,15.80
2019-03-31T18:15:08.395Z,13.77
2019-03-31T18:17:37.300Z,18.57
2019-03-31T18:20:06.706Z,16.53
2019-03-31T18:22:35.602Z,16.70
2019-03-31T18:25:05.332Z,21.23
2019-03-31T18:27:34.591Z,20.53
2019-03-31T18:30:03.966Z,14.27
2019-03-31T18:32:32.959Z,15.93
2019-03-31T18:35:01.783Z,10.67
2019-03-31T18:37:31.208Z,20.30
2019-03-31T18:40:00.425Z,12.80
2019-03-31T18:42:29.705Z,17.53
2019-03-31T18:44:59.025Z,13.67
2019-03-31T18:47:27.948Z,12.07
2019-03-31T18:49:56.955Z,17.27
2019-03-31T18:52:26.195Z,11.93
2019-03-31T18:55:12.899Z,10.90
2019-03-31T18:58:04.119Z,20.33
2019-03-31T19:01:04.490Z,13.73
2019-03-31T19:03:55.321Z,11.00
2019-03-31T19:06:51.485Z,8.97
2019-03-31T19:09:27.180Z,10.77
2019-03-31T19:12:24.219Z,10.23
2019-03-31T19:15:20.912Z,11.50
2019-03-31T19:18:09.286Z,10.80
2019-03-31T19:21:10.535Z,12.60
2019-03-31T19:23:46.031Z,10.47
2019-03-31T19:26:48.552Z,14.53
2019-03-31T19:29:48.748Z,5.20
2019-03-31T19:32:26.444Z,15.57
2019-03-31T19:35:17.487Z,11.60
2019-03-31T19:37:55.390Z,12.13
2019-03-31T19:40:42.808Z,11.03
2019-03-31T19:43:31.157Z,8.17
2019-03-31T19:46:37.434Z,11.33
2019-03-31T19:49:14.954Z,10.60
2019-03-31T19:52:06.289Z,13.83
2019-03-31T19:54:55.423Z,9.90
2019-03-31T19:57:53.039Z,9.47
2019-03-31T20:00:56.560Z,12.80
2019-03-31T20:03:36.324Z,11.00
2019-03-31T20:06:30.398Z,10.37
2019-03-31T20:09:06.734Z,7.40
2019-03-31T20:11:40.350Z,8.57
2019-03-31T20:14:17.823Z,11.40
2019-03-31T20:17:21.117Z,10.13
2019-03-31T20:20:06.007Z,9.73
2019-03-31T20:22:57.181Z,9.80
2019-03-31T20:25:41.171Z,8.50
2019-03-31T20:28:28.172Z,9.50
2019-03-31T20:31:16.747Z,55.47
2019-03-31T20:34:04.471Z,11.43
2019-03-31T20:37:01.741Z,7.50
2019-03-31T20:39:56.011Z,6.97
2019-03-31T20:42:31.590Z,11.73
2019-03-31T20:45:00.451Z,12.33
2019-03-31T20:47:29.411Z,8.73
2019-03-31T20:49:58.266Z,11.50
2019-03-31T20:52:27.063Z,10.40
2019-03-31T20:54:55.898Z,9.63
2019-03-31T20:57:24.718Z,13.17
2019-03-31T20:59:53.669Z,11.90
2019-03-31T21:02:22.509Z,7.90
2019-03-31T21:04:51.450Z,10.10
2019-03-31T21:07:20.622Z,10.60
2019-03-31T21:09:49.594Z,10.13
2019-03-31T21:12:18.975Z,9.87
2019-03-31T21:14:48.078Z,11.63
2019-03-31T21:17:17.311Z,8.03
2019-03-31T21:19:46.368Z,8.50
2019-03-31T21:22:15.374Z,12.03
2019-03-31T21:24:44.799Z,12.50
2019-03-31T21:27:13.726Z,10.03
2019-03-31T21:29:42.713Z,7.83
2019-03-31T21:32:11.627Z,9.20
2019-03-31T21:34:40.547Z,8.80
2019-03-31T21:37:09.637Z,9.27
2019-03-31T21:39:38.639Z,11.10
2019-03-31T21:42:07.811Z,9.00
2019-03-31T21:44:40.071Z,6.70
2019-03-31T21:47:09.095Z,12.23
2019-03-31T21:49:37.975Z,6.33
2019-03-31T21:52:07.297Z,7.70
2019-03-31T21:54:36.470Z,8.63
2019-03-31T21:57:05.359Z,7.33
2019-03-31T21:59:34.263Z,5.87
2019-03-31T22:02:03.395Z,6.10
2019-03-31T22:04:32.554Z,11.08
2019-03-31T22:07:01.990Z,9.30
2019-03-31T22:09:30.979Z,9.53
2019-03-31T22:11:59.878Z,16.83
2019-03-31T22:14:28.704Z,10.57
2019-03-31T22:16:57.661Z,8.07
2019-03-31T22:19:26.534Z,11.83
2019-03-31T22:21:55.386Z,6.17
2019-03-31T22:24:24.271Z,9.93
2019-03-31T22:26:53.498Z,12.77
2019-03-31T22:29:22.371Z,10.80
2019-03-31T22:31:51.693Z,16.63
2019-03-31T22:34:20.591Z,5.97
2019-03-31T22:36:49.672Z,12.33
2019-03-31T22:39:18.779Z,11.70
2019-03-31T22:41:47.827Z,6.43
2019-03-31T22:44:16.810Z,10.98
2019-03-31T22:46:54.129Z,11.37
2019-03-31T22:49:16.308Z,9.80
2019-03-31T22:51:45.207Z,9.17
2019-03-31T22:54:14.166Z,7.77
2019-03-31T22:56:43.073Z,8.93
2019-03-31T22:59:11.904Z,10.63
2019-03-31T23:01:40.808Z,7.57
2019-03-31T23:04:09.647Z,7.97
2019-03-31T23:06:38.630Z,14.10
2019-03-31T23:09:07.920Z,14.03
2019-03-31T23:11:36.751Z,16.10
2019-03-31T23:14:05.650Z,12.35
2019-03-31T23:16:34.810Z,10.53
2019-03-31T23:19:03.616Z,9.43
2019-03-31T23:21:33.135Z,8.70
2019-03-31T23:24:02.557Z,10.27
2019-03-31T23:26:31.362Z,12.40
2019-03-31T23:29:00.320Z,7.00
2019-03-31T23:31:31.038Z,12.97
2019-03-31T23:33:59.844Z,16.03
2019-03-31T23:36:28.730Z,9.30
2019-03-31T23:38:58.621Z,9.33
2019-03-31T23:41:27.568Z,14.60
2019-03-31T23:43:56.383Z,9.20
2019-03-31T23:46:25.336Z,9.80
2019-03-31T23:48:54.181Z,13.50
2019-03-31T23:51:23.019Z,13.38
2019-03-31T23:53:52.024Z,11.93
2019-03-31T23:56:21.363Z,8.55
2019-03-31T23:58:50.823Z,8.43
